• Join FlightAware (Why Join?)
  • Login
  • US Flag 
10:31PM EDT


 

Airport Tracker/Info


-or-


 

Live Flight TrackerFlight Track Log ✈ QFA1043 ✈ 20-Aug-2013 ✈ YBRM / BME - YSSY / SYD

Flight Track Log - Related Links

Times and Time Zones

All times are in EDT time to prevent confusion due to time zone crossing. See the QFA1043 flight status page for this flight to view local times or setup timezone preferences in your user account.

Time Position Orientation Groundspeed Altitude Reporting Facility
EDT Latitude Longitude Course Direction KTS MPH feet Rate Location/Type
02:42AM -17.9496 122.2277 133° Southeast 34,000  Level Aus ATC (Calculated)
02:43AM -18.9531 123.3614 133° Southeast  Level FlightAware Approximate
02:43AM -18.0108 122.2962 133° Southeast 34,000  Level Aus ATC (Calculated)
02:44AM -18.0651 122.3576 133° Southeast  Level FlightAware Approximate
02:45AM -18.1278 122.4281 133° Southeast  Level FlightAware Approximate
02:45AM -18.1827 122.4892 133° Southeast 34,000  Level Aus ATC (Calculated)
02:46AM -18.2267 122.5396 133° Southeast  Level FlightAware Approximate
02:46AM -18.2292 122.5415 133° Southeast 34,000  Level Aus ATC (Calculated)
02:46AM -18.2292 122.5415 133° Southeast 34,000 -60 Level Aus ATC (Calculated)
02:48AM -18.3472 122.6749 133° Southeast  Level FlightAware Approximate
02:48AM -18.3600 122.6888 133° Southeast 34,000  Level Aus ATC (Calculated)
02:49AM -18.3954 122.7287 133° Southeast 34,000 -60 Level Aus ATC (Calculated)
02:50AM -18.4936 122.8401 133° Southeast  Level FlightAware Approximate
02:50AM -18.5281 122.8786 133° Southeast 34,000  Level Aus ATC (Calculated)
02:51AM -18.5917 122.9516 133° Southeast  Level FlightAware Approximate
02:51AM -18.6275 122.9912 133° Southeast 34,000  Level Aus ATC (Calculated)
02:52AM -18.7021 123.0757 133° Southeast 34,000 -60 Level Aus ATC (Calculated)
02:53AM -18.7533 123.1346 133° Southeast  Level FlightAware Approximate
02:54AM -18.8261 123.2173 133° Southeast  Level FlightAware Approximate
02:54AM -18.8138 123.2026 133° Southeast 34,000  Level Aus ATC (Calculated)
02:55AM -18.9240 123.3293 133° Southeast  Level FlightAware Approximate
02:55AM -18.8696 123.2661 133° Southeast 34,000  Level Aus ATC (Calculated)
02:56AM -18.9254 123.3296 133° Southeast 37,000 -60 Climbing Aus ATC (Calculated)
02:56AM -18.9881 123.4015 133° Southeast 37,000 -120 Level Aus ATC (Calculated)
02:58AM -19.1070 123.5381 133° Southeast  Level FlightAware Approximate
02:59AM -19.2047 123.6505 133° Southeast  Level FlightAware Approximate
02:59AM -19.3012 123.7618 133° Southeast 37,000  Level Aus ATC (Calculated)
03:00AM -19.3023 123.7630 133° Southeast  Level FlightAware Approximate
03:01AM -19.4204 123.8995 133° Southeast  Level FlightAware Approximate
03:02AM -19.5183 124.0129 133° Southeast  Level FlightAware Approximate
03:02AM -19.5512 124.0510 133° Southeast 37,000  Level Aus ATC (Calculated)
03:03AM -19.6161 124.1264 132° Southeast  Level FlightAware Approximate
03:04AM -19.6702 124.1892 132° Southeast  Level FlightAware Approximate
03:05AM -19.7679 124.3028 132° Southeast  Level FlightAware Approximate
03:06AM -19.8655 124.4167 132° Southeast  Level FlightAware Approximate
03:07AM -19.9511 124.5411 132° Southeast  Level Estimated
03:07AM -20.0497 124.6321 132° Southeast 37,000  Level Aus ATC (Calculated)
03:08AM -20.0491 124.6547 133° Southeast  Level FlightAware Approximate
03:09AM -20.1701 124.7728 132° Southeast  Level FlightAware Approximate
03:09AM -20.1741 124.7779 132° Southeast 37,000  Level Aus ATC (Calculated)
03:11AM -20.3447 124.9779 132° Southeast  Level FlightAware Approximate
03:12AM -20.4421 125.0924 132° Southeast  Level FlightAware Approximate
03:12AM -20.4843 125.1435 132° Southeast 37,000  Level Aus ATC (Calculated)
03:12AM -20.5463 125.2168 132° Southeast 37,000 -120 Level Aus ATC (Calculated)
03:14AM -20.6679 125.3603 132° Southeast  Level FlightAware Approximate
03:14AM -20.7320 125.4371 132° Southeast 37,000  Level Aus ATC (Calculated)
03:15AM -20.7651 125.4752 132° Southeast  Level FlightAware Approximate
03:16AM -20.8453 125.5713 132° Southeast  Level FlightAware Approximate
03:16AM -20.9174 125.6578 132° Southeast 37,000  Level Aus ATC (Calculated)
03:17AM -20.9174 125.6578 132° Southeast 37,000 -180 Level Aus ATC (Calculated)
03:18AM -21.0264 125.7874 132° Southeast 37,000 -180 Level Aus ATC (Calculated)
03:20AM -21.2087 126.0047 132° Southeast  Level FlightAware Approximate
03:21AM -21.3037 126.1183 132° Southeast  Level FlightAware Approximate
03:22AM -21.3987 126.2321 132° Southeast  Level FlightAware Approximate
03:23AM -21.4935 126.3460 132° Southeast  Level FlightAware Approximate
03:23AM -21.4614 126.3074 132° Southeast 37,000  Level Aus ATC (Calculated)
03:24AM -21.5562 126.4214 132° Southeast  Level FlightAware Approximate
03:25AM -21.6510 126.5356 132° Southeast  Level FlightAware Approximate
03:26AM -21.7456 126.6499 132° Southeast  Level FlightAware Approximate
03:27AM -21.8402 126.7644 132° Southeast  Level FlightAware Approximate
03:27AM -21.8587 126.7868 132° Southeast 37,000  Level Aus ATC (Calculated)
03:27AM -21.9308 126.8742 132° Southeast 37,000 -180 Level Aus ATC (Calculated)
03:28AM -21.9532 126.9014 132° Southeast  Level FlightAware Approximate
03:28AM -21.9669 126.9180 132° Southeast 37,000  Level Aus ATC (Calculated)
03:29AM -22.0268 126.9909 132° Southeast  Level FlightAware Approximate
03:30AM -22.1351 127.1229 132° Southeast  Level FlightAware Approximate
03:31AM -22.2294 127.2380 132° Southeast  Level FlightAware Approximate
03:32AM -22.3236 127.3532 131° Southeast  Level FlightAware Approximate
03:32AM -22.3983 127.4448 131° Southeast 37,000  Level Aus ATC (Calculated)
03:33AM -22.4036 127.4804 131° Southeast  Level Estimated
03:34AM -22.4953 127.5642 131° Southeast  Level FlightAware Approximate
03:35AM -22.5892 127.6800 131° Southeast  Level FlightAware Approximate
03:36AM -22.6830 127.7959 131° Southeast  Level FlightAware Approximate
03:37AM -22.7767 127.9120 131° Southeast  Level FlightAware Approximate
03:37AM -22.8636 128.0191 131° Southeast 37,000  Level Aus ATC (Calculated)
03:38AM -22.8703 128.0282 131° Southeast  Level FlightAware Approximate
03:39AM -22.9603 128.1394 131° Southeast  Level FlightAware Approximate
03:40AM -23.0537 128.2560 131° Southeast  Level FlightAware Approximate
03:40AM -23.0777 128.2855 131° Southeast 37,000  Level Aus ATC (Calculated)
03:40AM -23.0777 128.2855 131° Southeast 37,000 -300 Level Aus ATC (Calculated)
03:42AM -23.2223 128.4666 131° Southeast  Level FlightAware Approximate
03:43AM -23.3155 128.5836 131° Southeast  Level FlightAware Approximate
03:43AM -23.4049 128.6958 131° Southeast 37,000  Level Aus ATC (Calculated)
03:44AM -23.4086 128.7008 131° Southeast  Level FlightAware Approximate
03:45AM -23.5051 128.8224 131° Southeast  Level FlightAware Approximate
03:46AM -23.5976 128.9394 131° Southeast  Level FlightAware Approximate
03:47AM -23.6900 129.0565 131° Southeast  Level FlightAware Approximate
03:48AM -23.7823 129.1739 131° Southeast  Level FlightAware Approximate
03:48AM -23.8956 129.3183 131° Southeast 37,000  Level Aus ATC (Calculated)
03:49AM -23.8745 129.2914 131° Southeast  Level FlightAware Approximate
03:50AM -24.0031 129.4556 131° Southeast  Level FlightAware Approximate
03:51AM -24.0951 129.5735 131° Southeast  Level FlightAware Approximate
03:52AM -24.1870 129.6916 130° Southeast  Level FlightAware Approximate
03:53AM -24.2788 129.8098 130° Southeast  Level FlightAware Approximate
03:53AM -24.3838 129.9454 130° Southeast 37,000  Level Aus ATC (Calculated)
03:54AM -24.3545 129.9411 122° Southeast  Level Estimated
03:55AM -24.4768 130.0985 124° Southeast  Level FlightAware Approximate
03:56AM -24.5552 130.2281 124° Southeast  Level FlightAware Approximate
03:57AM -24.6336 130.3579 124° Southeast  Level FlightAware Approximate
03:58AM -24.7118 130.4878 124° Southeast  Level FlightAware Approximate
03:58AM -24.8694 130.5773 307° West 37,000  Level Aus ATC (Calculated)
03:59AM -24.7899 130.6178 124° Southeast  Level FlightAware Approximate
04:00AM -24.9589 130.7325 123° Southeast  Level FlightAware Approximate
04:01AM -25.0345 130.8638 122° Southeast  Level FlightAware Approximate
04:02AM -25.1099 130.9953 122° Southeast  Level FlightAware Approximate
04:02AM -24.8610 130.5650 122° Southeast 489 563 31,000  Level FlightAware
04:03AM -25.1852 131.1270 122° Southeast  Level FlightAware Approximate
04:03AM -24.9130 130.6330 130° Southeast 488 562 31,000  Level FlightAware
04:03AM -24.9590 130.6940 130° Southeast 487 560 31,000  Level FlightAware
04:04AM -25.0130 130.7640 130° Southeast 486 559 31,000  Level FlightAware
04:04AM -25.3616 131.3179 304° West 37,000  Climbing Aus ATC (Calculated)
04:04AM -25.0670 130.8360 130° Southeast 484 557 31,000 -5,460 Descending FlightAware
04:05AM -25.1120 130.8940 131° Southeast 485 558 31,000  Level FlightAware
04:05AM -25.1580 130.9560 129° Southeast 486 559 31,000  Level FlightAware
04:06AM -25.5131 131.5931 301° West 37,000  Climbing Aus ATC (Calculated)
04:06AM -25.2070 131.0360 129° Southeast 500 575 31,000 -5,580 Descending FlightAware
04:07AM -25.2520 131.1170 122° Southeast 500 575 31,000  Level FlightAware
04:07AM -25.2900 131.1850 122° Southeast 500 575 31,000  Level FlightAware
04:08AM -25.3490 131.2920 121° Southeast 500 575 31,000  Level FlightAware
04:09AM -25.4130 131.4070 122° Southeast 499 574 31,000  Level FlightAware
04:10AM -25.4500 131.4750 121° Southeast 499 574 31,000  Level FlightAware
04:10AM -25.5100 131.5830 122° Southeast 499 574 31,000  Level FlightAware
04:11AM -25.5480 131.6520 121° Southeast 499 574 31,000  Level FlightAware
04:11AM -25.9272 132.3536 301° West 37,000  Climbing Aus ATC (Calculated)
04:12AM -25.5840 131.7190 121° Southeast 499 574 31,000 -4,980 Descending FlightAware
04:12AM -25.6480 131.8310 122° Southeast 533 613 31,200 420 Climbing FlightAware
04:13AM -25.6950 131.9170 121° Southeast 549 632 31,500 960 Climbing FlightAware
04:13AM -25.7410 132.0020 121° Southeast 545 627 32,400 1,380 Climbing FlightAware
04:14AM -26.1513 132.7706 300° West 37,000 1,320 Climbing Aus ATC (Calculated)
04:14AM -25.7890 132.0890 122° Southeast 545 627 33,200 -5,100 Descending FlightAware
04:15AM -25.8340 132.1720 121° Southeast 546 628 33,800 840 Climbing FlightAware
04:15AM -25.8780 132.2530 121° Southeast 551 634 34,200 840 Climbing FlightAware
04:16AM -25.9250 132.3390 121° Southeast 555 639 34,800 900 Climbing FlightAware
04:16AM -25.9720 132.4250 121° Southeast 557 641 35,300 960 Climbing FlightAware
04:17AM -26.0210 132.5150 121° Southeast 556 640 36,000 1,140 Climbing FlightAware
04:17AM -26.4112 133.2592 300° West 37,000 1,080 Climbing Aus ATC (Calculated)
04:17AM -26.0650 132.5970 121° Southeast 554 638 36,600  Descending FlightAware
04:18AM -26.1100 132.6790 121° Southeast 557 641 37,000 300 Climbing FlightAware
04:18AM -26.4852 133.3992 300° West 37,000  Level Aus ATC (Calculated)
04:19AM -26.1600 132.7720 121° Southeast 554 638 37,000  Level FlightAware
04:19AM -26.2060 132.8580 121° Southeast 555 639 37,000  Level FlightAware
04:20AM -26.2460 132.9330 121° Southeast 554 638 37,000  Level FlightAware
04:20AM -26.2970 133.0280 121° Southeast 554 638 37,000  Level FlightAware
04:21AM -26.3430 133.1150 121° Southeast 554 638 37,000  Level FlightAware
04:22AM -26.3850 133.1920 121° Southeast 553 636 37,000  Level FlightAware
04:22AM -26.7797 133.9609 300° West 37,000  Level Aus ATC (Calculated)
04:22AM -26.4330 133.2820 121° Southeast 553 636 37,000  Level FlightAware
04:23AM -26.4830 133.3760 121° Southeast 552 635 37,000  Level FlightAware
04:23AM -26.5240 133.4530 121° Southeast 553 636 37,000  Level FlightAware
04:24AM -26.5790 133.5570 121° Southeast 553 636 37,000  Level FlightAware
04:25AM -26.6230 133.6410 120° Southeast 555 639 37,000  Level FlightAware
04:25AM -26.6700 133.7290 121° Southeast 555 639 37,000  Level FlightAware
04:26AM -26.7160 133.8170 120° Southeast 557 641 37,000  Level FlightAware
04:26AM -26.7590 133.9000 120° Southeast 558 642 37,000  Level FlightAware
04:27AM -26.8050 133.9880 120° Southeast 559 643 37,000  Level FlightAware
04:27AM -27.1809 134.7380 299° West 37,000  Level Aus ATC (Calculated)
04:27AM -27.1809 134.7380 299° West 37,000  Level Aus ATC (Calculated)
04:27AM -26.8480 134.0690 120° Southeast 560 644 37,000  Level FlightAware
04:28AM -26.8960 134.1600 120° Southeast 560 644 37,000  Level FlightAware
04:29AM -26.9340 134.2350 120° Southeast 561 646 37,000  Level FlightAware
04:29AM -26.9750 134.3150 120° Southeast 561 646 37,000  Level FlightAware
04:30AM -27.0560 134.4690 121° Southeast 562 647 37,000  Level FlightAware
04:31AM -27.1020 134.5590 120° Southeast 562 647 37,000  Level FlightAware
04:31AM -27.1420 134.6360 120° Southeast 562 647 37,000  Level FlightAware
04:32AM -27.2030 134.7530 120° Southeast 567 652 37,000  Level FlightAware
04:32AM -27.5847 135.5307 299° West 37,000  Level Aus ATC (Calculated)
04:32AM -27.2430 134.8310 120° Southeast 567 652 37,000  Level FlightAware
04:33AM -27.2860 134.9190 119° Southeast 567 652 37,000  Level FlightAware
04:34AM -27.3250 134.9980 119° Southeast 567 652 37,000  Level FlightAware
04:34AM -27.3640 135.0770 119° Southeast 567 652 37,000  Level FlightAware
04:35AM -27.4030 135.1560 119° Southeast 567 652 37,000  Level FlightAware
04:36AM -27.4420 135.2350 119° Southeast 567 652 37,000  Level FlightAware
04:36AM -27.4810 135.3140 119° Southeast 567 652 37,000  Level FlightAware
04:37AM -27.9673 136.2670 300° West 37,000  Level Aus ATC (Calculated)
04:37AM -27.5200 135.3940 119° Southeast 567 652 37,000  Level FlightAware
04:37AM -28.0096 136.3491 300° West 37,000  Level Aus ATC (Calculated)
04:37AM -27.5590 135.4730 119° Southeast 567 652 37,000  Level FlightAware
04:38AM -27.5990 135.5540 119° Southeast 567 652 37,000  Level FlightAware
04:39AM -27.6390 135.6360 119° Southeast 567 652 37,000  Level FlightAware
04:39AM -27.6780 135.7150 119° Southeast 567 652 37,000  Level FlightAware
04:40AM -27.7170 135.7940 119° Southeast 567 652 37,000  Level FlightAware
04:40AM -28.2670 136.8555 300° West 37,000  Level Aus ATC (Calculated)
04:40AM -28.2670 136.8555 300° West 37,000  Level Aus ATC (Calculated)
04:40AM -27.7550 135.8740 119° Southeast 567 652 37,000  Level FlightAware
04:41AM -27.7940 135.9530 119° Southeast 567 652 37,000  Level FlightAware
04:42AM -27.8330 136.0320 119° Southeast 567 652 37,000  Level FlightAware
04:42AM -27.8720 136.1120 119° Southeast 567 652 37,000  Level FlightAware
04:43AM -27.9110 136.1910 119° Southeast 567 652 37,000  Level FlightAware
04:43AM -28.5002 137.3303 300° West 37,000  Level Aus ATC (Calculated)
04:43AM -27.9510 136.2730 119° Southeast 567 652 37,000  Level FlightAware
04:44AM -27.9910 136.3550 119° Southeast 567 652 37,000  Level FlightAware
04:45AM -28.0300 136.4340 119° Southeast 567 652 37,000  Level FlightAware
04:45AM -28.6393 137.6162 300° West 37,000  Level Aus ATC (Calculated)
04:45AM -28.6393 137.6162 300° West 37,000  Level Aus ATC (Calculated)
04:45AM -28.0690 136.5140 119° Southeast 567 652 37,000  Level FlightAware
04:46AM -28.1080 136.5930 119° Southeast 567 652 37,000  Level FlightAware
04:46AM -28.1470 136.6730 119° Southeast 567 652 37,000  Level FlightAware
04:47AM -28.7778 137.9028 300° West 37,000  Level Aus ATC (Calculated)
04:47AM -28.1870 136.7550 119° Southeast 567 652 37,000 120 Level FlightAware
04:49AM -28.9615 138.2862 119° Southeast 37,000 120 Level Aus ATC (Calculated)
04:50AM -28.3807 137.0863 119° Southeast  Level FlightAware Approximate
04:51AM -29.0678 138.5097 119° Southeast  Level FlightAware Approximate
04:51AM -29.0986 138.5746 119° Southeast 37,000  Level Aus ATC (Calculated)
04:53AM -29.2088 138.8081 118° Southeast  Level FlightAware Approximate
04:54AM -29.2748 138.9484 118° Southeast  Level FlightAware Approximate
04:54AM -29.3256 139.0569 118° Southeast 37,000  Level Aus ATC (Calculated)
04:56AM -29.4361 139.2938 118° Southeast  Level FlightAware Approximate
04:57AM -29.5016 139.4348 118° Southeast  Level FlightAware Approximate
04:58AM -29.5669 139.5759 118° Southeast  Level FlightAware Approximate
04:59AM -29.6320 139.7173 118° Southeast  Level FlightAware Approximate
04:59AM -29.7175 139.9036 298° West 39,000  Level Aus ATC (Calculated)
05:00AM -29.4070 139.2300 118° Southeast 577 664 39,000  Level FlightAware
05:01AM -29.8464 140.1860 298° West 39,000  Level Aus ATC (Calculated)
05:01AM -29.4470 139.3180 118° Southeast 577 664 39,000  Level FlightAware
05:02AM -29.5140 139.4630 118° Southeast 576 663 39,000  Level FlightAware
05:02AM -29.5500 139.5400 118° Southeast 573 659 39,000  Level FlightAware
05:03AM -29.5940 139.6340 118° Southeast 570 656 39,000  Level FlightAware
05:04AM -29.6510 139.7590 118° Southeast 571 657 39,000  Level FlightAware
05:04AM -30.1022 140.7530 297° West 39,000  Level Aus ATC (Calculated)
05:04AM -29.6910 139.8490 118° Southeast 571 657 39,000  Level FlightAware
05:05AM -29.7280 139.9320 117° Southeast 571 657 39,000  Level FlightAware
05:05AM -29.7650 140.0150 117° Southeast 571 657 39,000  Level FlightAware
05:06AM -29.8010 140.0980 117° Southeast 571 657 39,000  Level FlightAware
05:07AM -29.8390 140.1830 117° Southeast 571 657 39,000  Level FlightAware
05:07AM -29.9190 140.3460 120° Southeast 571 657 39,000  Level FlightAware
05:08AM -29.9580 140.4330 117° Southeast 572 658 39,000  Level FlightAware
05:08AM -30.0040 140.5340 118° Southeast 572 658 39,000  Level FlightAware
05:09AM -30.4777 141.6007 297° West 39,000  Level Aus ATC (Calculated)
05:09AM -30.0540 140.6470 118° Southeast 572 658 39,000  Level FlightAware
05:10AM -30.0920 140.7320 117° Southeast 572 658 39,000  Level FlightAware
05:10AM -30.1290 140.8160 117° Southeast 572 658 39,000  Level FlightAware
05:11AM -30.1650 140.8990 117° Southeast 572 658 39,000  Level FlightAware
05:11AM -30.5992 141.8791 297° West 39,000  Level Aus ATC (Calculated)
05:12AM -30.2020 140.9830 117° Southeast 572 658 39,000  Level FlightAware
05:12AM -30.2390 141.0660 117° Southeast 572 658 39,000  Level FlightAware
05:13AM -30.2760 141.1500 117° Southeast 572 658 39,000  Level FlightAware
05:13AM -30.7604 142.2515 297° West 39,000  Level Aus ATC (Calculated)
05:13AM -30.3120 141.2330 117° Southeast 572 658 39,000  Level FlightAware
05:14AM -30.3470 141.3120 117° Southeast 572 658 39,000  Level FlightAware
05:15AM -30.3850 141.3980 117° Southeast 572 658 39,000  Level FlightAware
05:15AM -30.4220 141.4820 117° Southeast 572 658 39,000  Level FlightAware
05:16AM -30.4470 141.5400 117° Southeast 572 658 39,000  Level FlightAware
05:16AM -30.4840 141.6240 117° Southeast 572 658 39,000  Level FlightAware
05:17AM -30.5210 141.7070 117° Southeast 572 658 39,000  Level FlightAware
05:17AM -30.5580 141.7930 117° Southeast 572 658 39,000  Level FlightAware
05:18AM -30.5950 141.8770 117° Southeast 572 658 39,000  Level FlightAware
05:18AM -31.0983 143.0450 296° West 39,000  Level Aus ATC (Calculated)
05:19AM -30.6320 141.9610 117° Southeast 572 658 39,000  Level FlightAware
05:20AM -31.2287 143.3558 116° Southeast 39,000  Level Aus ATC (Calculated)
05:21AM -30.7577 142.2495 117° Southeast  Level FlightAware Approximate
05:21AM -31.2612 143.4337 116° Southeast 39,000  Level Aus ATC (Calculated)
05:23AM -31.1433 143.1520 296° West  Level FlightAware Approximate
05:23AM -31.3907 143.7456 116° Southeast 39,000  Level Aus ATC (Calculated)
05:25AM -31.5053 144.0458 116° Southeast  Level Estimated
05:26AM -31.5701 144.2014 116° Southeast  Level FlightAware Approximate
05:26AM -31.5835 144.2151 116° Southeast 39,000  Level Aus ATC (Calculated)
05:28AM -31.6990 144.4995 116° Southeast  Level FlightAware Approximate
05:28AM -31.7110 144.5292 115° Southeast 39,000  Level Aus ATC (Calculated)
05:30AM -31.8364 144.8405 115° Southeast  Level FlightAware Approximate
05:31AM -31.8993 144.9978 115° Southeast  Level FlightAware Approximate
05:32AM -31.9620 145.1553 115° Southeast  Level FlightAware Approximate
05:33AM -32.0246 145.3130 115° Southeast  Level FlightAware Approximate
05:33AM -32.0265 145.3181 295° West 39,000  Level Aus ATC (Calculated)
05:34AM -31.8789 145.3181 North  Level FlightAware Approximate
05:35AM -32.0266 145.3181 180° South  Level FlightAware Approximate
05:36AM -31.9043 145.4157 34° Northeast  Level FlightAware Approximate
05:37AM -32.0266 145.3181 214° Southwest  Level FlightAware Approximate
05:37AM -31.9364 145.0902 214° Southwest 555 639 39,200  Level Aus ATC (RADAR)
05:37AM -31.9815 145.2099 114° Southeast 535 616 39,200  Level Aus ATC (RADAR)
05:38AM -32.0163 145.3036 114° Southeast 534 615 39,200  Level Aus ATC (RADAR)
05:39AM -32.0515 145.3968 114° Southeast 532 612 39,200  Level Aus ATC (RADAR)
05:39AM -32.0817 145.4755 114° Southeast 527 606 39,200  Level Aus ATC (RADAR)
05:40AM -32.1221 145.5811 114° Southeast 528 608 39,200 -240 Level Aus ATC (RADAR)
05:40AM -32.1500 145.6330 114° Southeast 525 604 39,000 -240 Descending FlightAware
05:41AM -32.1850 145.7240 114° Southeast 523 602 39,000  Level FlightAware
05:41AM -32.2210 145.8160 115° Southeast 522 601 39,000  Level FlightAware
05:42AM -32.2570 145.9080 115° Southeast 521 600 39,000 -120 Level FlightAware
05:42AM -32.2920 145.9980 115° Southeast 522 601 38,900 -300 Descending FlightAware
05:43AM -32.3290 146.0910 115° Southeast 524 603 38,700 -360 Descending FlightAware
05:44AM -32.3630 146.1810 114° Southeast 522 601 38,500 -360 Descending FlightAware
05:44AM -32.3990 146.2730 115° Southeast 520 598 38,300 -360 Descending FlightAware
05:45AM -32.4330 146.3630 114° Southeast 521 600 38,100 -300 Descending FlightAware
05:45AM -32.4680 146.4550 114° Southeast 520 598 38,000 60 Descending FlightAware
05:46AM -32.5000 146.5357 114° Southeast 509 586 38,200  Climbing Aus ATC (RADAR)
05:46AM -32.5030 146.5460 114° Southeast 518 596 38,000 -360 Descending FlightAware
05:47AM -32.5370 146.6370 114° Southeast 517 595 38,000  Level FlightAware
05:47AM -32.5710 146.7260 114° Southeast 517 595 38,000  Level FlightAware
05:48AM -32.6060 146.8170 115° Southeast 516 594 38,000  Level FlightAware
05:48AM -32.6440 146.9200 114° Southeast 515 593 38,000  Level FlightAware
05:49AM -32.6740 146.9980 115° Southeast 514 592 38,000  Level FlightAware
05:49AM -32.7070 147.0870 114° Southeast 514 592 38,000  Level FlightAware
05:50AM -32.7410 147.1780 114° Southeast 514 592 38,000  Level FlightAware
05:51AM -32.7790 147.2800 114° Southeast 514 592 38,000 60 Level FlightAware
05:51AM -32.8097 147.3603 114° Southeast 507 583 38,100  Climbing Aus ATC (RADAR)
05:51AM -32.8090 147.3590 114° Southeast 515 593 38,000 -180 Descending FlightAware
05:52AM -32.8420 147.4480 114° Southeast 515 593 38,000 120 Level FlightAware
05:52AM -32.8434 147.4506 114° Southeast 507 583 38,100  Climbing Aus ATC (RADAR)
05:52AM -32.8760 147.5390 114° Southeast 512 589 38,000 -120 Descending FlightAware
05:53AM -32.9090 147.6300 113° Southeast 512 589 38,000  Level FlightAware
05:54AM -32.9430 147.7220 114° Southeast 515 593 38,000  Level FlightAware
05:54AM -32.9720 147.8010 114° Southeast 511 588 38,000  Level FlightAware
05:55AM -33.0060 147.8930 114° Southeast 512 589 38,000  Level FlightAware
05:55AM -33.0380 147.9820 113° Southeast 511 588 38,000  Level FlightAware
05:56AM -33.0770 148.0870 114° Southeast 511 588 38,000 60 Level FlightAware
05:57AM -33.1146 148.1891 114° Southeast 505 581 38,100  Climbing Aus ATC (RADAR)
05:57AM -33.1150 148.1890 114° Southeast 504 580 38,000 -240 Descending FlightAware
05:57AM -33.1580 148.2550 114° Southeast 485 558 38,000 120 Level FlightAware
05:57AM -33.1648 148.2643 114° Southeast 496 571 38,100  Climbing Aus ATC (RADAR)
05:58AM -33.2190 148.3100 143° Southeast 476 548 38,000 -120 Descending FlightAware
05:58AM -33.2840 148.3640 145° Southeast 477 549 38,000  Level FlightAware
05:59AM -33.3480 148.4170 145° Southeast 477 549 38,000  Level FlightAware
05:59AM -33.4130 148.4720 145° Southeast 478 550 38,000  Level FlightAware
06:00AM -33.4780 148.5260 145° Southeast 479 551 38,000  Level FlightAware
06:01AM -33.5420 148.5800 145° Southeast 479 551 38,000  Level FlightAware
06:01AM -33.6070 148.6340 145° Southeast 479 551 38,000  Level FlightAware
06:02AM -33.6710 148.6880 145° Southeast 478 550 38,000  Level FlightAware
06:02AM -33.7350 148.7420 145° Southeast 479 551 38,000  Level FlightAware
06:03AM -33.7990 148.7960 145° Southeast 480 552 38,000  Level FlightAware
06:03AM -33.8650 148.8520 145° Southeast 481 554 38,000  Level FlightAware
06:04AM -33.9290 148.9060 145° Southeast 488 562 38,000  Level FlightAware
06:04AM -33.9363 148.9121 145° Southeast 484 557 38,000  Level Aus ATC (RADAR)
06:05AM -33.9950 148.9620 145° Southeast 488 562 38,000  Level FlightAware
06:05AM -34.0580 149.0150 145° Southeast 488 562 38,000 -360 Level FlightAware
06:06AM -34.1240 149.0710 145° Southeast 479 551 37,600 -840 Descending FlightAware
06:06AM -34.1860 149.1240 145° Southeast 475 547 37,100 -1,200 Descending FlightAware
06:07AM -34.2490 149.1790 144° Southeast 462 532 36,200 -1,920 Descending FlightAware
06:08AM -34.3090 149.2310 144° Southeast 461 531 34,900 -2,520 Descending FlightAware
06:08AM -34.3700 149.2830 145° Southeast 460 529 33,300 -2,820 Descending FlightAware
06:09AM -34.4180 149.3380 137° Southeast 477 549 31,900 -2,820 Descending FlightAware
06:09AM -34.4330 149.3730 117° Southeast 492 566 31,200 -3,180 Descending FlightAware
06:09AM -34.4460 149.4580 101° East 500 575 29,500 -2,580 Descending FlightAware
06:10AM -34.4580 149.5620 98° East 482 555 28,300 -2,160 Descending FlightAware
06:11AM -34.4700 149.6590 99° East 470 541 26,900 -2,400 Descending FlightAware
06:11AM -34.4800 149.7470 98° East 460 529 25,600 -2,220 Descending FlightAware
06:12AM -34.4900 149.8340 98° East 450 518 24,400 -2,160 Descending FlightAware
06:13AM -34.4910 149.9490 91° East 443 510 22,700 -2,100 Descending FlightAware
06:13AM -34.4600 150.0270 64° Northeast 434 499 21,500 -2,160 Descending FlightAware
06:14AM -34.4280 150.1000 62° Northeast 424 488 20,200 -2,100 Descending FlightAware
06:14AM -34.3930 150.1790 62° Northeast 411 473 18,900 -2,040 Descending FlightAware
06:15AM -34.3600 150.2540 62° Northeast 401 461 17,700 -2,100 Descending FlightAware
06:16AM -34.3250 150.3330 62° Northeast 393 452 16,300 -1,980 Descending FlightAware
06:16AM -34.2981 150.3912 62° Northeast 377 434 15,400 -1,920 Descending Aus ATC (RADAR)
06:16AM -34.2940 150.4010 62° Northeast 384 442 15,200 -1,980 Descending FlightAware
06:17AM -34.2670 150.4610 61° Northeast 377 434 14,200 -1,920 Descending FlightAware
06:17AM -34.2340 150.5360 62° Northeast 369 425 12,900 -1,860 Descending FlightAware
06:18AM -34.2100 150.5880 61° Northeast 359 413 12,000 -1,920 Descending FlightAware
06:18AM -34.1842 150.6460 61° Northeast 348 400 11,000 -1,980 Descending Aus ATC (RADAR)
06:18AM -34.1860 150.6420 61° Northeast 355 409 11,000 -1,380 Level FlightAware
06:19AM -34.1569 150.7064 61° Northeast 341 392 10,200 -1,260 Descending Aus ATC (RADAR)
06:19AM -34.1550 150.7100 61° Northeast 341 392 10,200 -540 Level FlightAware
06:19AM -34.1410 150.7430 63° Northeast 322 371 10,000 -1,080 Descending FlightAware
06:20AM -34.1260 150.7750 60° Northeast 314 361 9,500 -1,500 Descending FlightAware
06:20AM -34.1120 150.8070 62° Northeast 313 360 9,000 -1,260 Descending FlightAware
06:21AM -34.0950 150.8440 61° Northeast 305 351 8,600 -960 Descending FlightAware
06:21AM -34.0820 150.8740 62° Northeast 293 337 8,300 -1,080 Descending FlightAware
06:21AM -34.0680 150.9030 60° Northeast 289 333 7,900 -1,440 Descending FlightAware
06:22AM -34.0560 150.9300 62° Northeast 286 329 7,400 -1,260 Descending FlightAware
06:22AM -34.0500 150.9450 64° Northeast 281 323 7,300 -1,020 Descending FlightAware
06:22AM -34.0360 150.9780 63° Northeast 275 316 6,800 -1,380 Descending FlightAware
06:22AM -34.0340 150.9960 82° East 275 316 6,500 -1,440 Descending FlightAware
06:23AM -34.0410 151.0240 107° East 266 306 6,100 -1,260 Descending FlightAware
06:23AM -34.0510 151.0410 125° Southeast 263 303 5,800 -1,080 Descending FlightAware
06:23AM -34.0680 151.0620 134° Southeast 263 303 5,500 -1,020 Descending FlightAware
06:23AM -34.0780 151.0720 140° Southeast 258 297 5,300 -900 Descending FlightAware
06:24AM -34.0890 151.0790 152° Southeast 248 285 5,200 -900 Descending FlightAware
06:24AM -34.1010 151.0830 165° South 248 285 5,000 -1,020 Descending FlightAware
06:24AM -34.1230 151.0880 169° South 246 283 4,700 -600 Descending FlightAware
06:24AM -34.1460 151.0940 168° South 246 283 4,600 -540 Descending FlightAware
06:25AM -34.1720 151.1020 166° South 251 289 4,300 -600 Descending FlightAware
06:25AM -34.1860 151.1130 147° Southeast 245 282 4,200 -600 Descending FlightAware
06:25AM -34.1900 151.1200 125° Southeast 245 282 4,100 -900 Descending FlightAware
06:25AM -34.1930 151.1290 112° Southeast 242 278 4,000 -480 Descending FlightAware
06:25AM -34.1940 151.1380 98° East 245 282 4,000 -600 Level FlightAware
06:26AM -34.1870 151.1730 76° East 241 277 3,700 -540 Descending FlightAware
06:26AM -34.1760 151.1950 59° Northeast 220 253 3,600 -240 Descending FlightAware
06:26AM -34.1720 151.1990 40° Northeast 222 255 3,600 -300 Level FlightAware
06:26AM -34.1590 151.2060 24° Northeast 205 236 3,500 -540 Descending FlightAware
06:27AM -34.1410 151.2140 20° North 194 223 3,300 -600 Descending FlightAware
06:27AM -34.1190 151.2200 13° North 192 221 3,100 -660 Descending FlightAware
06:28AM -34.1020 151.2160 349° North 181 208 2,800 -900 Descending FlightAware
06:28AM -34.0890 151.2130 349° North 181 208 2,500 -960 Descending FlightAware
06:28AM -34.0660 151.2070 348° North 170 196 2,100 -1,020 Descending FlightAware
06:29AM -34.0520 151.2030 347° North 167 192 1,800 -1,020 Descending FlightAware
06:29AM -34.0380 151.2000 350° North 155 178 1,500 -900 Descending FlightAware
06:29AM -34.0270 151.1970 347° North 147 169 1,300 -900 Descending FlightAware
06:29AM -34.0140 151.1930 346° North 143 165 1,000 -900 Descending FlightAware
06:30AM -34.0050 151.1910 350° North 144 166 800 -720 Descending FlightAware
06:30AM -33.9920 151.1880 349° North 143 165 600 -780 Descending FlightAware
06:30AM -33.9850 151.1860 347° North 145 167 400 -780 Descending FlightAware
06:31AM -33.9720 151.1830 349° North 146 168 200 -600 Descending FlightAware
06:31AM -33.9510 151.1770 347° North 94 108 -420 Descending FlightAware